Terminal Aerodrome Forecast
Issued by NWS Hastings, NE

Home | Current Version | Previous Version | Text Only | Print | Product List | Glossary On
Versions: 1 2 3 4 5 6 7 8 9 10 11 12 13 14 15 16 17
000
FTUS43 KGID 240031 AAA
TAFGRI
TAF AMD
KGRI 240031Z 2401/2424 16015G22KT P6SM VCTS BKN080CB
      TEMPO 2401/2403 VRB35KT 6SM -TSRAGS BKN050CB
     FM240300 09014KT P6SM VCTS OVC050CB
     FM240500 32016KT P6SM VCTS OVC050CB
     FM241100 32020G30KT P6SM OVC100
     FM242200 31014G20KT P6SM FEW250=

USA.gov is the U.S. government's official web portal to all federal, state and local government web resources and services.